Pagrindinis puslapis
METAR-TAF:

METAR-TAF

Oro uostai :

Nasau, Bahamos

platuma: 25-03N, ilguma: 077-28W, Aukštis: 3 m

Dabartinis oras

Ataskaita buvo paskelbta 30 minutes, ne 00:00 UTC
Vėjas 4 kt iš Šiaurės Vakarų
Temperatūra 26°C
Drėgmė 89%
Slėgis 1012 hPa
Matomumas 10 km arba daugiau
nėra debesų žemiau 1500 m ir nėra kamuolinių lietaus debesų

METAR: MYNN 100000Z 31004KT CAVOK 26/24 A2987

Laikas: 20:30 (00:30 UTC)

Prognozė

Ataskaita buvo paskelbta 8 valandos ir 30 minutes, ne 16:00 UTC
Prognozė galioja nuo 09 metu 18 UTC su 10 metu 18 UTC
Vėjas 11 kt iš Vakarų
Matomumas 10 km arba daugiau
Išsisklaidę debesys ne aukštis 2000 ft
Tapsmas
nuo 10 metu 12 UTC su 10 metu 14 UTC
Vėjas 12 kt iš Šiaurės

TAF: MYNN 091600Z 0918/1018 26011KT 9999 SCT020 BECMG 1012/1014 35012KT

Orai ataskaitas ir orų prognozės (METAR, TAF).

turimą stotys yra geltonos ir raudonos taškus žemėlapyje.

Perkelti pele per norėdami pamatyti stoties vardą.

Tada spustelėkite, norėdami matyti oro stebėjimo ir prognozės.

Norėdami pakeisti žemėlapį: spustelėkite ant žalios mygtukų su juodo kryžiaus žemyn,; žalią mygtuką su brūkšneliu, jei norite nutolinti; arba žalių rodyklių gretimoms žemėlapius.


METAR-TAF: